Time;durP1;ratioP1;P1;durP2;ratioP2;P2;SDS_P1;SDS_P2;PMS_P1;PMS_P2;Temp;Humidity;BMP_temperature;BMP_pressure;BME280_temperature;BME280_humidity;BME280_pressure;Samples;Min_cycle;Max_cycle;Signal;HPM_P1;HPM_P2
2022/05/20 00:00:44;;;;;;;;;17.00;14.67;;;;;23.12;32.17;100910.23;110479;1261;19267;-49
2022/05/20 00:03:11;;;;;;;;;14.33;13.67;;;;;23.12;32.13;100909.98;110443;1260;19801;-48
2022/05/20 00:05:38;;;;;;;;;18.67;14.67;;;;;23.13;32.25;100913.23;110487;1261;20833;-48
2022/05/20 00:08:06;;;;;;;;;17.50;15.00;;;;;23.13;32.32;100917.23;110454;1260;18815;-47
2022/05/20 00:10:33;;;;;;;;;17.00;17.00;;;;;23.13;32.31;100919.27;110482;1261;19531;-48
2022/05/20 00:13:01;;;;;;;;;17.00;15.00;;;;;23.13;32.17;100921.58;110508;1261;18830;-50
2022/05/20 00:15:28;;;;;;;;;17.00;17.00;;;;;23.13;32.18;100911.63;110472;1261;19182;-50
2022/05/20 00:17:55;;;;;;;;;19.33;17.67;;;;;23.13;32.28;100908.29;110490;1261;19451;-51
2022/05/20 00:20:23;;;;;;;;;17.00;17.00;;;;;23.13;32.34;100910.34;110490;1260;18732;-50
2022/05/20 00:22:50;;;;;;;;;17.00;15.00;;;;;23.12;32.30;100903.09;110491;1260;18951;-49
2022/05/20 00:28:02;;;;;;;;;17.67;17.00;;;;;23.13;32.44;100894.13;110492;1261;19120;-49
2022/05/20 00:30:30;;;;;;;;;14.00;14.00;;;;;23.12;32.25;100891.77;110477;1260;22034;-49
2022/05/20 00:32:57;;;;;;;;;18.50;16.00;;;;;23.12;32.32;100897.69;110487;1261;32825;-50
2022/05/20 00:35:24;;;;;;;;;17.00;15.00;;;;;23.12;32.31;100896.02;110472;1260;18970;-49
2022/05/20 00:37:51;;;;;;;;;14.33;13.33;;;;;23.11;32.38;100892.09;110466;1260;19081;-49
2022/05/20 00:40:19;;;;;;;;;15.00;15.00;;;;;23.12;32.45;100887.48;110522;1260;19493;-50
2022/05/20 00:42:46;;;;;;;;;18.00;16.00;;;;;23.11;32.50;100886.11;110484;1260;18864;-52
2022/05/20 00:45:13;;;;;;;;;17.50;13.50;;;;;23.11;32.44;100888.30;110511;1261;18721;-50
2022/05/20 00:47:41;;;;;;;;;15.00;14.00;;;;;23.12;32.47;100887.80;110513;1260;19536;-50
2022/05/20 00:50:09;;;;;;;;;17.00;15.00;;;;;23.12;32.39;100894.58;110470;1262;18793;-54
2022/05/20 00:52:36;;;;;;;;;18.00;17.00;;;;;23.13;32.42;100893.55;110420;1260;19038;-49
2022/05/20 00:55:04;;;;;;;;;18.33;18.00;;;;;23.13;32.37;100891.13;110518;1261;19634;-49
2022/05/20 00:57:31;;;;;;;;;18.00;15.00;;;;;23.13;32.46;100892.39;110475;1261;18843;-49
2022/05/20 00:59:58;;;;;;;;;14.33;13.67;;;;;23.14;32.48;100890.13;110482;1260;18852;-50
2022/05/20 01:02:25;;;;;;;;;17.67;15.67;;;;;23.14;32.48;100883.60;110507;1261;19545;-49
2022/05/20 01:04:53;;;;;;;;;17.33;17.00;;;;;23.14;32.36;100885.38;110487;1259;22953;-49
2022/05/20 01:07:20;;;;;;;;;18.00;17.50;;;;;23.14;32.42;100884.27;110524;1261;18893;-50
2022/05/20 01:09:47;;;;;;;;;18.00;14.50;;;;;23.14;32.43;100881.62;110492;1261;19649;-50
2022/05/20 01:12:15;;;;;;;;;18.33;18.00;;;;;23.13;32.38;100885.32;110501;1261;19252;-51
2022/05/20 01:14:42;;;;;;;;;17.67;16.00;;;;;23.13;32.52;100886.02;110482;1261;19061;-50
2022/05/20 01:17:09;;;;;;;;;17.33;17.00;;;;;23.13;32.60;100892.30;110478;1261;22836;-50
2022/05/20 01:19:36;;;;;;;;;15.00;14.67;;;;;23.13;32.54;100891.50;110489;1261;18721;-48
2022/05/20 01:22:04;;;;;;;;;14.00;13.67;;;;;23.14;32.43;100895.80;110525;1261;18967;-50
2022/05/20 01:24:31;;;;;;;;;15.00;14.00;;;;;23.13;32.54;100893.14;110510;1260;21808;-50
2022/05/20 01:26:58;;;;;;;;;19.00;17.00;;;;;23.13;32.48;100889.89;110483;1260;22912;-49
2022/05/20 01:29:25;;;;;;;;;14.33;14.33;;;;;23.13;32.67;100892.92;110489;1261;18795;-50
2022/05/20 01:31:53;;;;;;;;;17.00;16.00;;;;;23.13;32.50;100886.92;110496;1259;19493;-49
2022/05/20 01:34:21;;;;;;;;;15.00;13.67;;;;;23.13;32.59;100880.39;110529;1261;22775;-49
2022/05/20 01:36:48;;;;;;;;;17.33;15.67;;;;;23.13;32.51;100874.59;110496;1261;19977;-50
2022/05/20 01:39:16;;;;;;;;;14.67;13.67;;;;;23.13;32.57;100867.48;110472;1260;21188;-49
2022/05/20 01:41:44;;;;;;;;;15.00;14.00;;;;;23.13;32.58;100874.34;110486;1261;19085;-49
2022/05/20 01:44:11;;;;;;;;;19.00;17.00;;;;;23.13;32.65;100872.49;110474;1260;18891;-50
2022/05/20 01:46:38;;;;;;;;;14.33;14.00;;;;;23.14;32.56;100875.39;110500;1261;19603;-49
2022/05/20 01:49:05;;;;;;;;;17.00;15.00;;;;;23.13;32.65;100883.67;110532;1262;25173;-50
2022/05/20 01:51:33;;;;;;;;;15.00;14.50;;;;;23.14;32.62;100881.99;110462;1261;19153;-50
2022/05/20 01:54:00;;;;;;;;;15.00;15.00;;;;;23.14;32.64;100877.80;110482;1261;22277;-50
2022/05/20 01:56:27;;;;;;;;;14.00;14.00;;;;;23.13;32.65;100885.13;110513;1261;18701;-49
2022/05/20 01:58:55;;;;;;;;;19.00;15.33;;;;;23.12;32.61;100888.70;110487;1261;18696;-50
2022/05/20 02:01:22;;;;;;;;;15.00;15.00;;;;;23.13;32.62;100886.44;110540;1260;19521;-50
2022/05/20 02:03:49;;;;;;;;;16.00;14.50;;;;;23.12;32.68;100885.42;110482;1261;19294;-50
2022/05/20 02:06:16;;;;;;;;;13.33;13.00;;;;;23.12;32.79;100880.12;110480;1261;19084;-50
2022/05/20 02:08:44;;;;;;;;;16.00;15.00;;;;;23.13;32.70;100875.88;110469;1261;19463;-49
2022/05/20 02:11:11;;;;;;;;;13.00;13.00;;;;;23.13;32.82;100871.65;110460;1261;22735;-50
2022/05/20 02:13:38;;;;;;;;;15.33;14.00;;;;;23.13;32.71;100868.02;110467;1261;18755;-48
2022/05/20 02:16:05;;;;;;;;;14.33;14.00;;;;;23.13;32.81;100868.53;110508;1261;19493;-48
2022/05/20 02:18:33;;;;;;;;;15.00;14.67;;;;;23.13;32.74;100868.70;110475;1260;22233;-50
2022/05/20 02:21:00;;;;;;;;;19.00;15.00;;;;;23.13;32.69;100860.67;110513;1261;18857;-50
2022/05/20 02:23:28;;;;;;;;;18.00;14.00;;;;;23.14;32.75;100855.64;110470;1262;19536;-49
2022/05/20 02:25:55;;;;;;;;;14.00;13.00;;;;;23.14;32.65;100852.56;110491;1261;20416;-50
2022/05/20 02:28:22;;;;;;;;;18.67;16.00;;;;;23.14;32.81;100846.59;110508;1261;20765;-50
2022/05/20 02:30:50;;;;;;;;;14.33;13.67;;;;;23.14;32.73;100846.39;110494;1261;19909;-51
2022/05/20 02:33:17;;;;;;;;;15.33;15.00;;;;;23.13;32.70;100850.45;110488;1261;19015;-49
2022/05/20 02:35:44;;;;;;;;;16.00;15.00;;;;;23.14;32.69;100850.96;110503;1261;20343;-49
2022/05/20 02:38:11;;;;;;;;;13.00;13.00;;;;;23.14;32.65;100848.23;110402;1261;19650;-50
2022/05/20 02:40:39;;;;;;;;;14.00;14.00;;;;;23.13;32.92;100849.23;110472;1262;22052;-49
2022/05/20 02:43:06;;;;;;;;;14.00;14.00;;;;;23.14;32.88;100850.58;110553;1261;18825;-50
2022/05/20 02:45:34;;;;;;;;;19.00;16.00;;;;;23.14;32.77;100848.77;110472;1261;19678;-51
2022/05/20 02:48:01;;;;;;;;;15.33;13.67;;;;;23.14;32.94;100847.82;110486;1260;18766;-49
2022/05/20 02:50:28;;;;;;;;;15.00;14.00;;;;;23.15;32.95;100848.86;110450;1260;19065;-49
2022/05/20 02:52:55;;;;;;;;;15.00;14.33;;;;;23.15;32.80;100850.13;110504;1262;19960;-49
2022/05/20 02:55:23;;;;;;;;;16.50;14.50;;;;;23.14;32.82;100851.05;110485;1260;20061;-50
2022/05/20 02:57:50;;;;;;;;;14.33;14.00;;;;;23.14;32.94;100850.13;110478;1261;23397;-50
2022/05/20 03:05:50;;;;;;;;;16.00;15.00;;;;;23.15;33.04;100849.54;110478;1261;18921;-50
2022/05/20 03:08:18;;;;;;;;;18.00;17.00;;;;;23.14;33.03;100849.08;110536;1260;19530;-50
2022/05/20 03:10:45;;;;;;;;;17.00;15.67;;;;;23.15;32.96;100850.09;110495;1262;18777;-50
2022/05/20 03:13:12;;;;;;;;;17.00;14.33;;;;;23.14;33.04;100850.89;110521;1261;21465;-51
2022/05/20 03:15:40;;;;;;;;;15.33;14.00;;;;;23.15;33.02;100854.84;110469;1260;19599;-49
2022/05/20 03:18:07;;;;;;;;;17.67;17.00;;;;;23.15;33.13;100851.35;110498;1262;23079;-48
2022/05/20 03:20:37;;;;;;;;;13.50;13.50;;;;;23.15;33.10;100851.31;110483;1260;18882;-49
2022/05/20 03:23:04;;;;;;;;;17.00;15.67;;;;;23.16;33.01;100851.05;110485;1261;19773;-52
2022/05/20 03:25:31;;;;;;;;;16.00;15.00;;;;;23.15;33.14;100857.66;110543;1261;18806;-51
2022/05/20 03:27:59;;;;;;;;;16.33;15.00;;;;;23.16;33.13;100857.45;110487;1260;18937;-52
2022/05/20 03:30:26;;;;;;;;;13.00;11.00;;;;;23.16;33.10;100860.02;110507;1261;19772;-48
2022/05/20 03:32:54;;;;;;;;;14.00;14.00;;;;;23.16;33.17;100860.69;110500;1262;18901;-50
2022/05/20 03:35:21;;;;;;;;;14.00;14.00;;;;;23.16;33.23;100858.67;110496;1260;18821;-50
2022/05/20 03:37:48;;;;;;;;;15.00;14.50;;;;;23.16;33.15;100856.82;110470;1261;23300;-50
2022/05/20 03:40:15;;;;;;;;;15.33;14.00;;;;;23.16;33.15;100854.73;110508;1261;18702;-50
2022/05/20 03:42:43;;;;;;;;;17.00;14.67;;;;;23.16;33.22;100855.77;110466;1261;21433;-51
2022/05/20 03:45:10;;;;;;;;;14.33;14.00;;;;;23.16;33.07;100852.61;110477;1260;19576;-51
2022/05/20 03:47:38;;;;;;;;;18.00;15.67;;;;;23.16;33.15;100851.23;110512;1261;18775;-49
2022/05/20 03:50:05;;;;;;;;;18.00;16.00;;;;;23.16;33.11;100848.79;110476;1261;18895;-49
2022/05/20 03:52:32;;;;;;;;;17.00;15.00;;;;;23.17;33.18;100848.37;110531;1261;22170;-50
2022/05/20 03:54:59;;;;;;;;;12.00;12.00;;;;;23.17;33.34;100843.79;110522;1261;21566;-50
2022/05/20 03:57:27;;;;;;;;;12.67;12.00;;;;;23.17;33.15;100837.73;110489;1261;18735;-50
2022/05/20 03:59:54;;;;;;;;;15.67;15.00;;;;;23.18;33.19;100843.89;110502;1261;19509;-51
2022/05/20 04:02:21;;;;;;;;;13.67;13.67;;;;;23.17;33.22;100832.98;110509;1260;18853;-50
2022/05/20 04:04:48;;;;;;;;;19.33;14.67;;;;;23.17;33.39;100834.79;110488;1260;19433;-50
2022/05/20 04:07:16;;;;;;;;;13.33;13.33;;;;;23.18;33.39;100836.23;110501;1261;19829;-49
2022/05/20 04:09:43;;;;;;;;;18.00;15.33;;;;;23.18;33.35;100841.50;110475;1260;19198;-50
2022/05/20 04:12:11;;;;;;;;;14.67;14.00;;;;;23.18;33.36;100839.46;110487;1260;19210;-50
2022/05/20 04:14:38;;;;;;;;;13.67;13.67;;;;;23.18;33.29;100843.80;110461;1261;21695;-50
2022/05/20 04:17:06;;;;;;;;;14.00;13.33;;;;;23.18;33.48;100845.82;110456;1260;18766;-49
2022/05/20 04:19:34;;;;;;;;;17.00;16.33;;;;;23.19;33.45;100850.33;110545;1261;18851;-50
2022/05/20 04:22:01;;;;;;;;;15.00;15.00;;;;;23.20;33.35;100851.51;110486;1261;19607;-49
2022/05/20 04:24:28;;;;;;;;;17.50;15.50;;;;;23.20;33.36;100851.67;110447;1260;21469;-49
2022/05/20 04:26:55;;;;;;;;;14.00;12.50;;;;;23.19;33.35;100850.31;110482;1261;18714;-48
2022/05/20 04:29:23;;;;;;;;;15.00;15.00;;;;;23.20;33.42;100846.20;110466;1262;19767;-51
2022/05/20 04:31:50;;;;;;;;;16.33;15.67;;;;;23.20;33.49;100848.02;110471;1262;18706;-50
2022/05/20 04:34:18;;;;;;;;;15.33;12.67;;;;;23.20;33.37;100845.61;110516;1261;19160;-50
2022/05/20 04:36:45;;;;;;;;;16.00;16.00;;;;;23.20;33.37;100848.90;110479;1260;19531;-50
2022/05/20 04:39:12;;;;;;;;;14.33;14.00;;;;;23.20;33.37;100848.95;110482;1261;18682;-50
2022/05/20 04:47:09;;;;;;;;;13.00;13.00;;;;;23.21;33.32;100853.57;110467;1262;18736;-51
2022/05/20 04:49:36;;;;;;;;;14.00;13.33;;;;;23.19;33.61;100852.80;110500;1261;18935;-53
2022/05/20 04:52:04;;;;;;;;;12.33;10.67;;;;;23.20;33.46;100856.42;110516;1260;22271;-49
2022/05/20 04:57:16;;;;;;;;;14.00;14.00;;;;;23.22;33.54;100853.83;110484;1261;19036;-49
2022/05/20 04:59:43;;;;;;;;;14.00;13.00;;;;;23.22;33.70;100860.30;110512;1260;19541;-51
2022/05/20 05:02:10;;;;;;;;;13.67;12.67;;;;;23.23;33.67;100861.36;110485;1262;18680;-50
2022/05/20 05:04:38;;;;;;;;;13.50;13.50;;;;;23.23;33.81;100857.57;110505;1260;20965;-50
2022/05/20 05:07:09;;;;;;;;;12.00;12.00;;;;;23.23;33.73;100855.34;110508;1261;19541;-50
2022/05/20 05:09:36;;;;;;;;;14.67;14.00;;;;;23.23;33.61;100857.24;110498;1261;18836;-50
2022/05/20 05:12:04;;;;;;;;;19.33;18.00;;;;;23.24;33.67;100858.83;110471;1260;19334;-49
2022/05/20 05:14:32;;;;;;;;;15.00;14.00;;;;;23.25;33.75;100858.59;110478;1261;19387;-51
2022/05/20 05:16:59;;;;;;;;;18.00;16.00;;;;;23.26;33.61;100858.44;110481;1261;18772;-53
2022/05/20 05:19:26;;;;;;;;;14.33;13.67;;;;;23.26;33.67;100860.96;110517;1260;18816;-48
2022/05/20 05:21:53;;;;;;;;;14.67;14.33;;;;;23.28;33.70;100859.84;110478;1260;19732;-50
2022/05/20 05:24:21;;;;;;;;;12.33;12.33;;;;;23.31;33.76;100865.68;110487;1260;20230;-49
2022/05/20 05:26:48;;;;;;;;;12.00;12.00;;;;;23.32;33.46;100870.04;110471;1261;18816;-50
2022/05/20 05:29:15;;;;;;;;;14.00;13.00;;;;;23.33;33.57;100867.43;110493;1261;19509;-50
2022/05/20 05:31:42;;;;;;;;;14.67;13.67;;;;;23.33;33.58;100868.62;110488;1260;18857;-50
2022/05/20 05:34:10;;;;;;;;;16.00;15.00;;;;;23.33;33.79;100868.66;110507;1261;18950;-50
2022/05/20 05:36:37;;;;;;;;;17.67;14.00;;;;;23.34;33.61;100874.73;110455;1261;20950;-49
2022/05/20 05:39:04;;;;;;;;;15.00;14.67;;;;;23.34;33.58;100876.67;110506;1261;21412;-49
2022/05/20 05:41:32;;;;;;;;;16.00;12.00;;;;;23.35;33.73;100884.04;110090;1260;517790;-49
2022/05/20 05:44:01;;;;;;;;;14.00;14.00;;;;;23.37;33.73;100883.70;110476;1262;22357;-49
2022/05/20 05:46:28;;;;;;;;;12.67;12.67;;;;;23.38;33.71;100883.75;110444;1261;19004;-50
2022/05/20 05:48:55;;;;;;;;;16.50;14.00;;;;;23.39;33.66;100882.77;110472;1261;18898;-50
2022/05/20 05:51:23;;;;;;;;;15.00;14.33;;;;;23.45;33.65;100878.65;110464;1262;19926;-50
2022/05/20 05:53:50;;;;;;;;;16.33;15.33;;;;;23.51;33.95;100877.00;110445;1261;18928;-50
2022/05/20 05:56:17;;;;;;;;;15.67;15.67;;;;;23.54;34.66;100872.80;110476;1261;18792;-48
2022/05/20 05:58:44;;;;;;;;;16.00;15.00;;;;;23.55;35.33;100876.67;110440;1262;22764;-48
2022/05/20 06:01:13;;;;;;;;;18.50;18.00;;;;;23.57;35.62;100870.89;110525;1260;18684;-48
2022/05/20 06:03:40;;;;;;;;;17.33;15.67;;;;;23.60;36.45;100874.31;110494;1261;21655;-50
2022/05/20 06:06:08;;;;;;;;;23.00;18.67;;;;;23.65;36.83;100880.33;110486;1262;19510;-50
2022/05/20 06:08:35;;;;;;;;;18.00;16.00;;;;;23.68;37.17;100878.81;110445;1260;21443;-51
2022/05/20 06:11:02;;;;;;;;;16.00;15.00;;;;;23.73;37.52;100880.29;110460;1261;19156;-50
2022/05/20 06:13:29;;;;;;;;;18.00;17.33;;;;;23.77;37.38;100876.08;110500;1260;19489;-49
2022/05/20 06:15:57;;;;;;;;;21.67;20.00;;;;;23.79;37.50;100876.48;110466;1261;18761;-49
2022/05/20 06:18:24;;;;;;;;;19.00;16.00;;;;;23.82;37.94;100876.38;110491;1261;18790;-50
2022/05/20 06:20:51;;;;;;;;;18.00;18.00;;;;;23.86;37.98;100874.11;110481;1261;19560;-49
2022/05/20 06:23:19;;;;;;;;;20.00;19.67;;;;;23.88;37.51;100873.50;110479;1261;23088;-50
2022/05/20 06:25:46;;;;;;;;;17.00;16.00;;;;;23.90;37.26;100871.09;110370;1261;21093;-48
2022/05/20 06:28:13;;;;;;;;;16.67;15.33;;;;;23.88;37.09;100874.69;110521;1261;19418;-49
2022/05/20 06:30:40;;;;;;;;;17.67;16.67;;;;;23.88;36.83;100878.89;110472;1262;18728;-50
2022/05/20 06:33:08;;;;;;;;;15.00;15.00;;;;;23.89;36.77;100880.41;110468;1261;18752;-49
2022/05/20 06:41:06;;;;;;;;;15.00;15.00;;;;;23.91;36.27;100883.95;110475;1261;18810;-51
2022/05/20 06:43:33;;;;;;;;;17.50;16.50;;;;;23.93;36.32;100883.41;110530;1260;19488;-51
2022/05/20 06:46:01;;;;;;;;;15.00;15.00;;;;;23.94;36.09;100880.09;110434;1261;18882;-50
2022/05/20 06:48:29;;;;;;;;;15.67;14.33;;;;;23.97;35.90;100879.59;110487;1260;20564;-48
2022/05/20 06:50:56;;;;;;;;;15.00;14.50;;;;;23.97;36.09;100883.80;110492;1260;19641;-52
2022/05/20 06:53:23;;;;;;;;;15.67;15.67;;;;;23.99;35.83;100884.45;110485;1262;18700;-51
2022/05/20 06:55:51;;;;;;;;;19.00;16.00;;;;;24.03;35.70;100884.15;110508;1260;18914;-50
2022/05/20 06:58:18;;;;;;;;;17.67;16.00;;;;;24.04;35.76;100887.27;110533;1261;22833;-49
2022/05/20 07:00:45;;;;;;;;;14.33;14.00;;;;;24.05;35.51;100882.91;110497;1261;18754;-50
2022/05/20 07:03:12;;;;;;;;;16.00;15.67;;;;;24.04;35.49;100881.00;110481;1261;19062;-51
2022/05/20 07:05:40;;;;;;;;;13.50;12.00;;;;;24.00;35.44;100881.93;110498;1260;19642;-50
2022/05/20 07:08:07;;;;;;;;;12.00;12.00;;;;;23.95;35.58;100880.23;110464;1259;19061;-50
2022/05/20 07:10:34;;;;;;;;;15.00;14.33;;;;;23.90;35.59;100877.98;110523;1261;18796;-50
2022/05/20 07:13:02;;;;;;;;;14.00;12.00;;;;;23.87;35.57;100880.61;110498;1261;19798;-50
2022/05/20 07:15:29;;;;;;;;;14.00;14.00;;;;;23.86;35.54;100881.27;110481;1260;19440;-49
2022/05/20 07:17:56;;;;;;;;;15.00;15.00;;;;;23.87;35.59;100885.75;110493;1259;18937;-51
2022/05/20 07:20:24;;;;;;;;;16.00;15.33;;;;;23.88;35.52;100887.06;110479;1259;22274;-51
2022/05/20 07:22:51;;;;;;;;;14.00;14.00;;;;;23.88;35.47;100886.01;110477;1259;18838;-48
2022/05/20 07:25:19;;;;;;;;;16.33;14.33;;;;;23.89;35.42;100886.31;110530;1261;19019;-49
2022/05/20 07:27:46;;;;;;;;;15.00;14.67;;;;;23.92;35.45;100887.73;110495;1260;19551;-49
2022/05/20 07:30:14;;;;;;;;;16.50;16.00;;;;;23.93;35.51;100887.58;110500;1259;19117;-52
2022/05/20 07:32:41;;;;;;;;;13.00;13.00;;;;;23.96;35.42;100886.09;110472;1259;18865;-49
2022/05/20 07:35:09;;;;;;;;;16.00;14.00;;;;;24.00;35.27;100896.15;110483;1260;19529;-51
2022/05/20 07:37:37;;;;;;;;;14.67;14.67;;;;;24.01;35.26;100896.77;110529;1262;19039;-50
2022/05/20 07:40:04;;;;;;;;;14.00;13.67;;;;;24.01;35.33;100898.40;110480;1261;18784;-50
2022/05/20 07:42:31;;;;;;;;;11.00;11.00;;;;;24.01;35.20;100900.77;110477;1261;19453;-50
2022/05/20 07:44:59;;;;;;;;;13.00;13.00;;;;;24.03;35.24;100902.60;110477;1259;22374;-50
2022/05/20 07:47:27;;;;;;;;;14.33;14.00;;;;;24.04;35.19;100901.89;110442;1261;18793;-49
2022/05/20 07:49:54;;;;;;;;;15.67;15.33;;;;;24.05;35.24;100898.98;110471;1261;19583;-53
2022/05/20 07:55:03;;;;;;;;;14.67;12.00;;;;;24.03;35.23;100900.13;110457;1261;21605;-52
2022/05/20 07:57:30;;;;;;;;;12.00;12.00;;;;;24.01;35.18;100897.69;110473;1261;22778;-50
2022/05/20 07:59:57;;;;;;;;;11.67;11.00;;;;;23.98;35.31;100898.20;110497;1261;21923;-49
2022/05/20 08:02:25;;;;;;;;;12.00;12.00;;;;;23.94;35.29;100893.57;110480;1262;18889;-51
2022/05/20 08:04:56;;;;;;;;;13.50;13.50;;;;;23.92;35.59;100891.36;110470;1261;22772;-48
2022/05/20 08:07:23;;;;;;;;;13.67;13.67;;;;;23.92;35.46;100891.53;110510;1261;18747;-50
2022/05/20 08:09:50;;;;;;;;;11.00;11.00;;;;;23.93;35.30;100891.08;110508;1261;18704;-48
2022/05/20 08:12:18;;;;;;;;;12.00;12.00;;;;;23.93;35.44;100892.13;110463;1262;19548;-50
2022/05/20 08:14:45;;;;;;;;;11.33;11.00;;;;;23.95;35.48;100895.14;110468;1261;18848;-52
2022/05/20 08:17:12;;;;;;;;;12.00;11.33;;;;;23.96;35.40;100897.90;110478;1261;20585;-50
2022/05/20 08:19:40;;;;;;;;;14.00;14.00;;;;;23.98;35.42;100902.42;110521;1262;19516;-50
2022/05/20 08:22:07;;;;;;;;;12.00;12.00;;;;;23.98;35.41;100903.48;110473;1261;18775;-49
2022/05/20 08:24:34;;;;;;;;;12.00;11.00;;;;;23.99;35.25;100899.39;110508;1261;18726;-51
2022/05/20 08:27:02;;;;;;;;;12.00;12.00;;;;;23.99;35.42;100905.63;110480;1260;22226;-46
2022/05/20 08:29:29;;;;;;;;;12.00;11.33;;;;;23.98;35.43;100902.98;110472;1261;19031;-48
2022/05/20 08:31:56;;;;;;;;;12.00;12.00;;;;;23.98;35.32;100904.73;110485;1261;18743;-50
2022/05/20 08:34:23;;;;;;;;;14.00;12.00;;;;;23.98;35.40;100902.98;110535;1262;19626;-51
2022/05/20 08:36:51;;;;;;;;;12.00;12.00;;;;;23.98;35.47;100900.81;110474;1261;22861;-50
2022/05/20 08:39:18;;;;;;;;;11.00;11.00;;;;;23.97;35.51;100903.05;110497;1259;18782;-51
2022/05/20 08:41:45;;;;;;;;;12.00;11.00;;;;;23.96;35.54;100901.77;110500;1260;19722;-51
2022/05/20 08:44:13;;;;;;;;;10.67;10.67;;;;;23.96;35.58;100897.94;110529;1260;18992;-49
2022/05/20 08:46:40;;;;;;;;;12.00;11.00;;;;;23.95;35.64;100895.17;110543;1262;22023;-51
2022/05/20 08:49:07;;;;;;;;;13.00;12.33;;;;;23.95;35.66;100891.98;110494;1260;19456;-50
2022/05/20 08:51:34;;;;;;;;;10.67;10.00;;;;;23.95;35.68;100889.98;110490;1259;18744;-50
2022/05/20 08:54:01;;;;;;;;;14.00;12.00;;;;;23.96;35.61;100889.21;110451;1261;22064;-50
2022/05/20 08:56:29;;;;;;;;;12.00;11.00;;;;;23.94;35.59;100895.08;110489;1261;19696;-52
2022/05/20 08:58:56;;;;;;;;;11.00;11.00;;;;;23.93;35.74;100905.39;110477;1262;22904;-51
2022/05/20 09:01:23;;;;;;;;;11.00;11.00;;;;;23.93;35.79;100911.46;110520;1261;21661;-49
2022/05/20 09:03:51;;;;;;;;;12.00;12.00;;;;;23.92;35.80;100908.59;110456;1261;19885;-51
2022/05/20 09:06:18;;;;;;;;;12.67;12.00;;;;;23.92;35.70;100910.70;110503;1261;18733;-50
2022/05/20 09:08:45;;;;;;;;;12.00;12.00;;;;;23.92;35.70;100908.71;110503;1261;18853;-50
2022/05/20 09:11:12;;;;;;;;;10.67;10.67;;;;;23.92;35.89;100913.31;110465;1262;19464;-49
2022/05/20 09:16:25;;;;;;;;;11.00;11.00;;;;;23.90;35.84;100906.59;110506;1261;18910;-49
2022/05/20 09:18:52;;;;;;;;;14.00;11.33;;;;;23.90;35.92;100911.48;110467;1261;19457;-50
2022/05/20 09:21:20;;;;;;;;;12.00;12.00;;;;;23.90;35.90;100910.63;110492;1261;21042;-50
2022/05/20 09:23:47;;;;;;;;;11.00;11.00;;;;;23.89;35.91;100909.23;110486;1259;22319;-50
2022/05/20 09:26:16;;;;;;;;;13.33;11.00;;;;;23.89;35.96;100907.62;110483;1260;19470;-50
2022/05/20 09:28:44;;;;;;;;;10.00;10.00;;;;;23.89;36.04;100906.69;110501;1261;18757;-52
2022/05/20 09:31:12;;;;;;;;;14.00;11.33;;;;;23.88;35.83;100907.23;110502;1259;18960;-49
2022/05/20 09:33:39;;;;;;;;;11.00;11.00;;;;;23.87;36.00;100909.16;110487;1261;20935;-50
2022/05/20 09:36:06;;;;;;;;;10.67;10.67;;;;;23.86;36.06;100909.33;110459;1261;22864;-50
2022/05/20 09:38:33;;;;;;;;;12.00;12.00;;;;;23.85;36.00;100909.70;110460;1261;18815;-48
2022/05/20 09:41:04;;;;;;;;;11.00;11.00;;;;;23.86;36.09;100906.33;110455;1261;21845;-47
2022/05/20 09:43:31;;;;;;;;;12.00;11.00;;;;;23.86;36.10;100918.25;110520;1260;22517;-49
2022/05/20 09:45:59;;;;;;;;;10.67;10.67;;;;;23.86;36.17;100912.39;110465;1261;24026;-50
2022/05/20 09:48:26;;;;;;;;;11.33;11.33;;;;;23.85;36.22;100914.50;110473;1261;21683;-49
2022/05/20 09:50:54;;;;;;;;;10.00;10.00;;;;;23.83;36.21;100910.70;110497;1260;18768;-50
2022/05/20 09:53:21;;;;;;;;;13.33;12.00;;;;;23.84;36.18;100916.50;110504;1261;20306;-53
2022/05/20 09:55:48;;;;;;;;;11.00;10.67;;;;;23.85;36.38;100911.98;110423;1260;19624;-50
2022/05/20 09:58:15;;;;;;;;;13.00;12.33;;;;;23.85;36.33;100917.23;110518;1260;18679;-49
2022/05/20 10:00:43;;;;;;;;;12.00;12.00;;;;;23.85;36.42;100918.88;110450;1262;19493;-47
2022/05/20 10:03:10;;;;;;;;;10.00;10.00;;;;;23.85;36.38;100920.39;110464;1260;19469;-49
2022/05/20 10:05:37;;;;;;;;;11.00;10.33;;;;;23.84;36.44;100915.71;110483;1262;18871;-49
2022/05/20 10:08:05;;;;;;;;;10.00;10.00;;;;;23.84;36.40;100915.52;110469;1261;18844;-48
2022/05/20 10:10:32;;;;;;;;;10.00;10.00;;;;;23.85;36.44;100916.39;110515;1260;21946;-50
2022/05/20 10:12:59;;;;;;;;;11.67;10.67;;;;;23.84;36.54;100920.09;110480;1261;18861;-46
2022/05/20 10:15:26;;;;;;;;;11.67;11.00;;;;;23.85;36.36;100929.88;110484;1260;18798;-48
2022/05/20 10:17:54;;;;;;;;;11.00;11.00;;;;;23.85;36.48;100925.11;110455;1261;19678;-51
2022/05/20 10:20:21;;;;;;;;;14.00;11.00;;;;;23.85;36.60;100926.25;110480;1259;18836;-50
2022/05/20 10:22:48;;;;;;;;;15.00;12.00;;;;;23.84;36.75;100930.84;110458;1260;20191;-49
2022/05/20 10:25:17;;;;;;;;;11.67;11.00;;;;;23.84;36.57;100923.79;110513;1261;19797;-50
2022/05/20 10:27:44;;;;;;;;;9.00;9.00;;;;;23.84;36.66;100924.20;110491;1261;18804;-48
2022/05/20 10:32:56;;;;;;;;;15.33;12.00;;;;;23.83;36.70;100925.88;110513;1262;22782;-48
2022/05/20 10:35:24;;;;;;;;;11.00;10.67;;;;;23.83;36.76;100933.23;110508;1260;18851;-51
2022/05/20 10:37:52;;;;;;;;;10.00;10.00;;;;;23.82;36.72;100930.02;110498;1260;18706;-48
2022/05/20 10:40:19;;;;;;;;;10.00;10.00;;;;;23.82;36.67;100931.11;110502;1260;19529;-51
2022/05/20 10:42:46;;;;;;;;;10.67;10.33;;;;;23.82;36.84;100926.45;110475;1261;18877;-50
2022/05/20 10:50:43;;;;;;;;;16.00;14.00;;;;;23.81;36.90;100927.24;110486;1259;18760;-50
2022/05/20 10:53:11;;;;;;;;;10.00;9.50;;;;;23.81;36.74;100929.80;110475;1260;18935;-50
2022/05/20 10:55:38;;;;;;;;;11.00;11.00;;;;;23.80;36.99;100929.69;110520;1261;22682;-49
2022/05/20 10:58:05;;;;;;;;;9.00;9.00;;;;;23.79;36.93;100923.27;110488;1261;18914;-49
2022/05/20 11:00:32;;;;;;;;;11.67;11.00;;;;;23.80;37.09;100921.97;110482;1260;19986;-50
2022/05/20 11:03:00;;;;;;;;;10.00;10.00;;;;;23.80;37.07;100924.84;110477;1261;19571;-50
2022/05/20 11:05:27;;;;;;;;;11.00;11.00;;;;;23.80;37.04;100920.59;110495;1261;20847;-52
2022/05/20 11:07:54;;;;;;;;;10.00;10.00;;;;;23.81;37.15;100913.98;110487;1260;19101;-50
2022/05/20 11:10:22;;;;;;;;;11.50;11.00;;;;;23.80;37.02;100923.41;110551;1261;19610;-50
2022/05/20 11:12:49;;;;;;;;;11.00;10.67;;;;;23.79;37.09;100922.17;110478;1260;18694;-49
2022/05/20 11:15:17;;;;;;;;;9.67;9.67;;;;;23.78;37.01;100915.38;110459;1261;18743;-51
2022/05/20 11:17:44;;;;;;;;;10.00;10.00;;;;;23.78;37.22;100915.07;110501;1261;22806;-50
2022/05/20 11:20:11;;;;;;;;;10.00;10.00;;;;;23.78;37.18;100913.40;110460;1260;18580;-53
2022/05/20 11:22:39;;;;;;;;;10.00;10.00;;;;;23.78;37.30;100906.08;110524;1261;18853;-50
2022/05/20 11:25:06;;;;;;;;;14.00;12.00;;;;;23.78;37.14;100898.44;110419;1261;19420;-51
2022/05/20 11:27:33;;;;;;;;;8.00;8.00;;;;;23.78;37.21;100898.64;110486;1259;18725;-51
2022/05/20 11:30:01;;;;;;;;;8.00;8.00;;;;;23.78;37.20;100902.63;110488;1261;27064;-50
2022/05/20 11:32:28;;;;;;;;;14.00;11.00;;;;;23.78;37.17;100893.73;110475;1260;19638;-50
2022/05/20 11:34:55;;;;;;;;;9.67;8.00;;;;;23.78;37.13;100884.76;110447;1261;18477;-51
2022/05/20 11:37:24;;;;;;;;;10.33;10.33;;;;;23.78;37.15;100888.25;110497;1261;19473;-50